Time;durP1;ratioP1;P1;durP2;ratioP2;P2;SDS_P1;SDS_P2;PMS_P1;PMS_P2;Temp;Humidity;BMP_temperature;BMP_pressure;BME280_temperature;BME280_humidity;BME280_pressure;Samples;Min_cycle;Max_cycle;Signal;HPM_P1;HPM_P2
2022/11/03 00:01:37;;;;;;;9.07;4.90;;;;;;;16.33;52.49;95220.31;6177722;23;20159;-84
2022/11/03 00:04:05;;;;;;;17.67;5.80;;;;;;;16.34;52.40;95223.72;6176553;23;20206;-83
2022/11/03 00:06:32;;;;;;;15.53;5.60;;;;;;;16.34;52.62;95226.34;6175370;23;20630;-84
2022/11/03 00:08:59;;;;;;;13.70;5.37;;;;;;;16.43;53.48;95227.53;6176830;23;20178;-83
2022/11/03 00:11:26;;;;;;;15.43;5.43;;;;;;;16.42;53.66;95224.13;6176529;23;20697;-83
2022/11/03 00:13:53;;;;;;;14.67;5.17;;;;;;;16.42;54.27;95232.00;6178682;23;20175;-84
2022/11/03 00:16:20;;;;;;;15.83;5.60;;;;;;;16.45;54.62;95236.78;6176662;23;20224;-84
2022/11/03 00:18:49;;;;;;;12.57;5.50;;;;;;;16.49;54.59;95231.84;6176192;23;20634;-85
2022/11/03 00:21:15;;;;;;;8.57;5.00;;;;;;;16.46;54.65;95224.44;6174829;23;20178;-83
2022/11/03 00:23:44;;;;;;;16.10;5.73;;;;;;;16.60;54.76;95235.44;6176897;23;20650;-83
2022/11/03 00:26:13;;;;;;;11.03;5.30;;;;;;;16.52;54.60;95218.25;6178039;23;20514;-84
2022/11/03 00:28:41;;;;;;;12.23;5.60;;;;;;;16.63;54.61;95242.81;6177604;23;20171;-82
2022/11/03 00:31:10;;;;;;;11.70;5.60;;;;;;;16.58;54.83;95225.19;6177621;23;20202;-84
2022/11/03 00:33:38;;;;;;;13.30;5.13;;;;;;;16.61;54.75;95240.47;6177461;23;20575;-83
2022/11/03 00:36:08;;;;;;;13.87;5.20;;;;;;;16.59;54.75;95232.03;6178989;23;20648;-81
2022/11/03 00:38:36;;;;;;;11.17;5.20;;;;;;;16.61;54.85;95240.47;6177126;23;20170;-80
2022/11/03 00:41:06;;;;;;;14.33;5.37;;;;;;;16.53;54.91;95243.47;6177214;23;20152;-81
2022/11/03 00:43:34;;;;;;;12.43;5.60;;;;;;;16.41;55.12;95224.38;6177149;23;20174;-83
2022/11/03 00:46:01;;;;;;;10.80;5.87;;;;;;;16.43;55.40;95241.47;6177764;23;20178;-83
2022/11/03 00:48:31;;;;;;;11.07;5.27;;;;;;;16.33;55.80;95237.91;6179237;23;20181;-83
2022/11/03 00:51:08;;;;;;;12.77;5.73;;;;;;;15.94;56.84;95233.56;6176967;23;20272;-83
2022/11/03 00:53:36;;;;;;;11.63;5.97;;;;;;;15.56;58.02;95237.63;6177312;23;20212;-82
2022/11/03 00:56:04;;;;;;;11.20;6.03;;;;;;;15.61;58.00;95236.94;6178190;23;20174;-82
2022/11/03 00:58:32;;;;;;;14.20;5.97;;;;;;;15.68;57.96;95235.75;6177494;23;20167;-81
2022/11/03 01:01:01;;;;;;;14.90;6.17;;;;;;;15.80;58.17;95241.75;6178134;23;20253;-83
2022/11/03 01:03:29;;;;;;;14.70;6.40;;;;;;;15.88;57.79;95228.25;6177802;23;20315;-83
2022/11/03 01:08:42;;;;;;;15.70;7.50;;;;;;;15.96;59.12;95234.91;6177267;23;20190;-83
2022/11/03 01:13:54;;;;;;;16.77;7.13;;;;;;;15.93;60.09;95230.16;6178067;23;20161;-83
2022/11/03 01:16:22;;;;;;;14.57;7.10;;;;;;;15.80;60.64;95220.78;6177668;23;20178;-81
2022/11/03 01:18:50;;;;;;;15.07;6.90;;;;;;;15.92;60.46;95225.16;6177038;22;20167;-82
2022/11/03 01:21:17;;;;;;;16.00;7.20;;;;;;;15.90;60.11;95228.03;6177444;23;20622;-82
2022/11/03 01:23:46;;;;;;;12.67;7.17;;;;;;;15.95;60.32;95232.53;6177967;23;20169;-82
2022/11/03 01:26:14;;;;;;;17.13;7.83;;;;;;;15.95;60.40;95232.53;6177652;23;20178;-82
2022/11/03 01:28:44;;;;;;;19.10;7.10;;;;;;;15.71;60.87;95219.56;6176978;23;20618;-82
2022/11/03 01:31:12;;;;;;;14.27;7.60;;;;;;;15.41;62.92;95218.97;6176943;23;20191;-81
2022/11/03 01:33:39;;;;;;;15.27;8.10;;;;;;;15.22;64.50;95231.44;6176425;23;20219;-82
2022/11/03 01:36:07;;;;;;;20.17;9.33;;;;;;;15.17;66.36;95225.31;6177719;23;20178;-82
2022/11/03 01:38:35;;;;;;;20.73;9.40;;;;;;;15.24;67.30;95233.81;6174965;22;20167;-80
2022/11/03 01:41:05;;;;;;;17.77;9.80;;;;;;;15.27;67.59;95231.53;6173264;23;20159;-79
2022/11/03 01:43:32;;;;;;;23.27;10.73;;;;;;;15.25;68.64;95224.94;6175764;23;20163;-80
2022/11/03 01:46:06;;;;;;;23.03;10.93;;;;;;;15.29;68.81;95233.94;6177718;23;20185;-80
2022/11/03 01:48:34;;;;;;;19.67;10.27;;;;;;;15.30;69.39;95235.50;6177457;23;20163;-81
2022/11/03 01:51:03;;;;;;;24.03;10.80;;;;;;;15.24;69.61;95226.75;6175775;23;20600;-81
2022/11/03 01:53:31;;;;;;;23.47;10.67;;;;;;;15.19;70.18;95231.09;6177276;23;20221;-82
2022/11/03 01:55:59;;;;;;;23.77;10.77;;;;;;;15.14;70.13;95236.25;6177344;23;20177;-81
2022/11/03 01:58:31;;;;;;;19.40;10.63;;;;;;;15.17;70.40;95233.16;6178004;23;20182;-81
2022/11/03 02:01:00;;;;;;;22.60;11.20;;;;;;;15.06;70.82;95237.41;6178059;23;20159;-80
2022/11/03 02:03:31;;;;;;;21.50;11.20;;;;;;;15.16;71.07;95248.09;6176689;23;20244;-80
2022/11/03 02:05:59;;;;;;;21.73;10.63;;;;;;;15.17;70.90;95248.88;6178779;23;20182;-80
2022/11/03 02:08:34;;;;;;;23.43;10.77;;;;;;;15.18;70.65;95247.88;6185988;23;20206;-83
2022/11/03 02:12:05;;;;;;;21.50;11.27;;;;;;;14.89;71.48;95233.91;6188494;23;20175;-83
2022/11/03 02:13:50;;;;;;;17.43;9.93;;;;;;;14.89;71.52;95243.59;6188369;23;20191;-83
2022/11/03 02:16:18;;;;;;;16.67;9.93;;;;;;;14.85;71.33;95243.25;6188026;23;20170;-82
2022/11/03 02:18:46;;;;;;;17.40;10.37;;;;;;;14.95;71.10;95245.28;6185409;23;20190;-82
2022/11/03 02:21:21;;;;;;;19.60;9.97;;;;;;;15.00;70.63;95243.56;6179531;22;20629;-82
2022/11/03 02:23:57;;;;;;;21.23;10.53;;;;;;;15.05;70.92;95243.66;6180932;23;20155;-81
2022/11/03 02:26:27;;;;;;;20.10;9.80;;;;;;;15.07;70.42;95243.44;6180436;23;20567;-84
2022/11/03 02:28:54;;;;;;;18.67;10.03;;;;;;;15.02;70.80;95243.31;6177883;23;20174;-83
2022/11/03 02:31:30;;;;;;;22.70;11.00;;;;;;;15.05;70.67;95237.63;6178240;23;20198;-84
2022/11/03 02:34:04;;;;;;;20.63;11.07;;;;;;;15.22;70.03;95249.78;6180351;23;20194;-84
2022/11/03 02:36:36;;;;;;;20.77;10.80;;;;;;;15.29;70.06;95250.44;6180271;23;20219;-82
2022/11/03 02:39:11;;;;;;;21.30;10.60;;;;;;;15.15;70.03;95248.34;6178700;23;20693;-81
2022/11/03 02:41:40;;;;;;;26.10;11.17;;;;;;;15.08;70.92;95245.03;6178365;23;20500;-81
2022/11/03 02:44:13;;;;;;;21.90;10.87;;;;;;;15.09;71.07;95242.16;6178286;23;20175;-83
2022/11/03 02:46:43;;;;;;;19.97;11.50;;;;;;;15.05;71.40;95240.25;6177207;23;20166;-83
2022/11/03 02:49:10;;;;;;;22.43;11.53;;;;;;;15.05;70.48;95242.88;6177122;23;20669;-83
2022/11/03 02:51:36;;;;;;;19.03;11.40;;;;;;;14.91;71.21;95239.72;6165103;23;20199;-81
2022/11/03 02:54:09;;;;;;;24.60;11.23;;;;;;;14.96;70.96;95236.41;6176821;23;20171;-81
2022/11/03 02:56:43;;;;;;;19.53;10.60;;;;;;;15.03;70.75;95237.88;6175555;23;20159;-85
2022/11/03 02:59:14;;;;;;;17.97;9.67;;;;;;;15.05;69.97;95245.50;6179430;23;20158;-84
2022/11/03 03:01:49;;;;;;;17.37;9.87;;;;;;;14.89;69.71;95248.81;6178906;23;20156;-82
2022/11/03 03:04:21;;;;;;;20.10;9.80;;;;;;;14.98;69.39;95248.22;6177848;22;20209;-83
2022/11/03 03:06:51;;;;;;;21.40;10.17;;;;;;;15.05;68.81;95237.63;6177249;23;20159;-81
2022/11/03 03:09:21;;;;;;;21.03;9.93;;;;;;;15.10;67.85;95241.16;6177791;23;20167;-81
2022/11/03 03:11:53;;;;;;;18.13;8.60;;;;;;;14.98;67.49;95243.00;6177763;23;20183;-81
2022/11/03 03:14:25;;;;;;;16.93;8.20;;;;;;;14.72;67.90;95244.28;6178720;23;20586;-82
2022/11/03 03:16:59;;;;;;;17.20;8.20;;;;;;;14.34;69.00;95236.09;6177641;23;20164;-81
2022/11/03 03:19:41;;;;;;;22.57;8.60;;;;;;;14.43;69.50;95236.56;6177186;23;20663;-81
2022/11/03 03:22:14;;;;;;;12.67;7.97;;;;;;;14.55;69.09;95239.94;6177902;22;20163;-83
2022/11/03 03:24:49;;;;;;;17.33;8.83;;;;;;;14.60;69.55;95235.63;6177070;23;20232;-81
2022/11/03 03:27:21;;;;;;;24.13;9.37;;;;;;;14.65;69.99;95241.00;6177085;23;20166;-81
2022/11/03 03:29:52;;;;;;;20.70;10.10;;;;;;;14.72;69.68;95238.22;6177698;23;20191;-81
2022/11/03 03:32:23;;;;;;;21.90;9.53;;;;;;;14.83;68.88;95247.94;6176771;23;20190;-81
2022/11/03 03:34:53;;;;;;;21.90;9.80;;;;;;;14.77;68.78;95233.13;6177065;23;20159;-82
2022/11/03 03:37:23;;;;;;;19.17;9.53;;;;;;;14.86;68.52;95239.63;6177236;23;20167;-81
2022/11/03 03:39:54;;;;;;;23.03;9.50;;;;;;;14.80;69.05;95237.91;6177629;23;20199;-80
2022/11/03 03:42:24;;;;;;;25.03;10.33;;;;;;;14.49;70.77;95239.03;6177780;23;20159;-80
2022/11/03 03:44:52;;;;;;;20.67;9.60;;;;;;;14.31;72.15;95241.75;6176968;23;20887;-81
2022/11/03 03:47:24;;;;;;;20.00;9.63;;;;;;;14.19;72.66;95243.56;6176836;23;20175;-80
2022/11/03 03:49:51;;;;;;;20.70;10.33;;;;;;;14.30;72.12;95239.34;6176448;23;20166;-80
2022/11/03 03:52:18;;;;;;;21.73;10.50;;;;;;;14.35;72.32;95239.47;6177614;23;20199;-80
2022/11/03 03:54:45;;;;;;;16.80;9.73;;;;;;;14.42;71.92;95238.38;6175837;23;20182;-81
2022/11/03 03:57:15;;;;;;;22.00;10.87;;;;;;;14.55;71.44;95245.97;6175875;23;20175;-80
2022/11/03 03:59:44;;;;;;;20.03;9.77;;;;;;;14.57;71.61;95237.94;6175768;23;20171;-80
2022/11/03 04:02:11;;;;;;;32.67;10.90;;;;;;;14.61;71.66;95242.47;6176307;22;20167;-80
2022/11/03 04:04:38;;;;;;;25.10;11.50;;;;;;;14.59;71.63;95246.34;6176751;23;20167;-80
2022/11/03 04:09:50;;;;;;;26.43;11.50;;;;;;;14.57;71.85;95245.78;6175945;23;20220;-81
2022/11/03 04:23:19;;;;;;;22.13;11.40;;;;;;;14.39;73.46;95243.25;6176349;23;20165;-82
2022/11/03 04:25:50;;;;;;;26.17;12.43;;;;;;;14.44;72.66;95240.75;6176278;23;20506;-82
2022/11/03 04:28:17;;;;;;;27.27;12.00;;;;;;;14.49;73.24;95235.63;6177202;23;20164;-82
2022/11/03 04:30:45;;;;;;;26.10;12.53;;;;;;;14.45;73.39;95237.13;6177471;23;20174;-82
2022/11/03 04:33:15;;;;;;;32.00;13.30;;;;;;;14.44;73.25;95232.91;6177838;23;20178;-81
2022/11/03 04:35:44;;;;;;;27.23;12.87;;;;;;;14.41;73.34;95238.59;6176637;23;20187;-82
2022/11/03 04:38:22;;;;;;;32.93;13.87;;;;;;;14.43;73.15;95237.34;6176861;23;20224;-82
2022/11/03 04:40:53;;;;;;;30.10;13.60;;;;;;;14.41;73.08;95236.78;6175542;23;20202;-82
2022/11/03 04:43:23;;;;;;;28.00;13.67;;;;;;;14.32;73.30;95229.44;6177501;23;20198;-85
2022/11/03 04:45:51;;;;;;;27.50;13.63;;;;;;;14.14;73.41;95231.13;6182035;23;20163;-81
2022/11/03 04:48:21;;;;;;;24.10;13.40;;;;;;;14.16;73.82;95241.38;6180302;23;20167;-81
2022/11/03 04:50:52;;;;;;;27.93;14.63;;;;;;;14.18;73.57;95237.53;6178055;23;20170;-82
2022/11/03 04:53:20;;;;;;;27.93;14.70;;;;;;;14.10;73.97;95240.47;6175425;23;20267;-82
2022/11/03 04:55:49;;;;;;;32.30;15.83;;;;;;;13.65;75.53;95242.72;6178469;23;20171;-82
2022/11/03 04:58:20;;;;;;;29.27;15.13;;;;;;;13.34;78.31;95235.09;6176684;23;20167;-81
2022/11/03 05:00:47;;;;;;;28.23;15.43;;;;;;;13.17;79.79;95228.09;6175546;23;20649;-83
2022/11/03 05:03:20;;;;;;;29.50;15.20;;;;;;;13.01;80.59;95229.47;6176343;23;20167;-83
2022/11/03 05:05:47;;;;;;;34.50;16.87;;;;;;;13.02;80.85;95229.25;6176541;23;20167;-82
2022/11/03 05:08:16;;;;;;;30.07;15.70;;;;;;;13.05;80.90;95220.97;6178063;23;20280;-83
2022/11/03 05:10:43;;;;;;;30.60;14.70;;;;;;;13.20;80.42;95233.69;6177018;23;20173;-84
2022/11/03 05:13:17;;;;;;;39.40;18.97;;;;;;;13.35;79.92;95235.91;6176699;23;20199;-83
2022/11/03 05:15:46;;;;;;;48.80;21.27;;;;;;;13.46;79.32;95243.78;6176567;23;20159;-81
2022/11/03 05:18:19;;;;;;;45.67;20.17;;;;;;;13.46;78.59;95246.41;6176473;23;20167;-82
2022/11/03 05:20:50;;;;;;;30.60;16.33;;;;;;;13.42;78.46;95240.03;6176001;23;20163;-81
2022/11/03 05:23:19;;;;;;;49.13;20.57;;;;;;;13.51;78.92;95248.34;6175733;23;20186;-81
2022/11/03 05:25:48;;;;;;;36.30;18.50;;;;;;;13.48;79.04;95239.13;6175270;23;20198;-81
2022/11/03 05:28:25;;;;;;;43.50;18.90;;;;;;;13.54;78.62;95250.50;6176038;23;20163;-81
2022/11/03 05:30:53;;;;;;;51.00;22.20;;;;;;;13.52;78.53;95250.75;6176675;23;20485;-83
2022/11/03 05:33:28;;;;;;;58.60;24.57;;;;;;;13.54;78.53;95256.53;6175479;23;20174;-81
2022/11/03 05:35:55;;;;;;;77.27;28.80;;;;;;;13.51;78.09;95256.16;6172516;23;20162;-83
2022/11/03 05:38:23;;;;;;;68.27;26.93;;;;;;;13.48;78.16;95257.41;6153508;23;20274;-82
2022/11/03 05:40:52;;;;;;;59.63;24.80;;;;;;;13.43;78.67;95252.06;6175409;23;20199;-82
2022/11/03 05:43:20;;;;;;;61.20;25.53;;;;;;;13.47;78.35;95270.72;6177040;23;20171;-81
2022/11/03 05:45:48;;;;;;;59.87;25.27;;;;;;;13.46;78.61;95266.50;6176739;23;20221;-82
2022/11/03 05:48:22;;;;;;;60.07;24.43;;;;;;;13.46;79.20;95269.91;6176053;23;20167;-82
2022/11/03 05:50:51;;;;;;;49.17;23.90;;;;;;;13.41;79.79;95282.03;6175275;23;20202;-84
2022/11/03 05:53:29;;;;;;;56.60;24.17;;;;;;;13.43;79.77;95280.00;6173616;23;20205;-77
2022/11/03 05:55:58;;;;;;;50.33;22.00;;;;;;;13.39;79.55;95278.84;6174801;23;20155;-78
2022/11/03 05:58:29;;;;;;;58.70;22.33;;;;;;;13.37;80.11;95281.66;6173546;23;20532;-77
2022/11/03 06:00:56;;;;;;;51.43;19.07;;;;;;;13.37;79.97;95280.84;6172513;23;20918;-77
2022/11/03 06:03:37;;;;;;;62.07;17.30;;;;;;;13.34;78.78;95283.91;6172945;23;20202;-78
2022/11/03 06:06:16;;;;;;;55.33;17.10;;;;;;;13.36;79.60;95294.94;6173582;23;20185;-77
2022/11/03 06:08:43;;;;;;;66.07;16.87;;;;;;;13.43;nan;95296.47;6175069;23;20193;-78
2022/11/03 06:11:23;;;;;;;47.53;15.60;;;;;;;13.54;78.39;95297.53;6173594;23;20171;-78
2022/11/03 06:13:50;;;;;;;52.07;15.73;;;;;;;13.59;77.98;95301.06;6173908;23;20163;-77
2022/11/03 06:19:43;;;;;;;39.57;15.43;;;;;;;13.79;77.55;95308.66;5103548;27;20863;-78
2022/11/03 06:22:18;;;;;;;43.53;15.40;;;;;;;13.80;77.44;95315.47;5100036;28;20203;-77
2022/11/03 06:24:45;;;;;;;46.17;17.70;;;;;;;13.59;79.01;95313.34;5100850;28;20202;-78
2022/11/03 06:27:18;;;;;;;42.03;17.10;;;;;;;13.32;81.64;95309.44;5103736;28;20204;-77
2022/11/03 06:29:50;;;;;;;41.47;18.77;;;;;;;13.25;82.13;95314.72;5102394;28;20749;-78
2022/11/03 06:32:17;;;;;;;39.83;19.30;;;;;;;13.11;82.82;95312.47;5103768;28;20253;-77
2022/11/03 06:34:48;;;;;;;47.13;19.40;;;;;;;13.05;84.88;95314.91;5101242;28;20204;-77
2022/11/03 06:37:24;;;;;;;52.63;19.87;;;;;;;13.21;84.35;95321.41;5101761;28;20195;-78
2022/11/03 06:39:54;;;;;;;40.30;17.67;;;;;;;13.41;84.32;95319.38;5102744;28;20195;-79
2022/11/03 06:42:22;;;;;;;38.90;17.97;;;;;;;13.60;83.68;95317.53;5099832;28;20349;-78
2022/11/03 06:44:51;;;;;;;34.33;16.97;;;;;;;13.73;82.90;95309.56;5100695;28;20196;-78
2022/11/03 06:47:23;;;;;;;31.40;17.20;;;;;;;13.95;82.05;95321.09;5101115;28;20196;-78
2022/11/03 06:49:58;;;;;;;36.53;17.53;;;;;;;14.10;81.06;95326.72;5101921;28;20197;-78
2022/11/03 06:52:27;;;;;;;36.93;16.87;;;;;;;14.24;80.34;95327.34;5099145;28;20195;-78
2022/11/03 06:54:59;;;;;;;30.87;16.47;;;;;;;14.30;80.22;95317.78;5097238;28;20293;-77
2022/11/03 06:57:27;;;;;;;41.13;19.90;;;;;;;14.43;79.50;95326.25;5100086;28;20192;-77
2022/11/03 06:59:56;;;;;;;32.43;17.07;;;;;;;14.53;79.62;95330.94;5100326;28;20838;-77
2022/11/03 07:02:50;;;;;;;35.57;16.13;;;;;;;14.65;78.87;95331.75;5101719;28;20367;-76
2022/11/03 07:05:22;;;;;;;28.33;15.73;;;;;;;14.73;78.06;95326.19;5101787;28;20200;-78
2022/11/03 07:07:49;;;;;;;32.53;15.90;;;;;;;14.75;77.91;95316.28;5098687;28;20272;-76
2022/11/03 07:10:16;;;;;;;30.63;15.83;;;;;;;14.86;78.00;95317.34;5098240;28;20196;-77
2022/11/03 07:12:43;;;;;;;30.90;15.77;;;;;;;14.97;77.52;95314.72;5096607;28;20197;-77
2022/11/03 07:15:29;;;;;;;32.43;16.57;;;;;;;15.06;77.11;95313.34;5101549;28;20253;-76
2022/11/03 07:17:57;;;;;;;31.50;17.40;;;;;;;15.19;76.72;95313.09;5100715;28;20224;-78
2022/11/03 07:20:28;;;;;;;43.97;17.43;;;;;;;15.22;76.85;95319.69;5097429;28;20200;-77
2022/11/03 07:22:57;;;;;;;39.70;17.30;;;;;;;15.22;76.21;95314.44;5099618;28;20196;-77
2022/11/03 07:25:24;;;;;;;30.40;16.37;;;;;;;15.22;76.22;95302.16;5098887;28;20215;-78
2022/11/03 07:27:54;;;;;;;30.57;16.33;;;;;;;15.44;75.72;95315.41;5101361;28;20211;-78
2022/11/03 07:30:23;;;;;;;27.63;15.73;;;;;;;15.52;74.78;95314.31;5092316;28;20201;-78
2022/11/03 07:32:53;;;;;;;31.37;16.60;;;;;;;15.66;73.67;95318.25;5088517;28;20764;-78
2022/11/03 07:35:33;;;;;;;37.47;16.90;;;;;;;15.64;74.67;95321.09;5087086;28;20193;-77
2022/11/03 07:38:03;;;;;;;27.37;16.23;;;;;;;15.62;73.80;95314.50;5086456;28;20224;-78
2022/11/03 07:40:34;;;;;;;30.00;16.80;;;;;;;15.49;73.51;95318.19;5087819;28;20201;-79
2022/11/03 07:43:12;;;;;;;31.60;16.97;;;;;;;15.53;74.22;95313.28;5088291;28;20189;-78
2022/11/03 07:45:42;;;;;;;30.43;16.27;;;;;;;15.15;74.63;95317.19;5087335;28;20196;-77
2022/11/03 07:48:19;;;;;;;46.13;16.17;;;;;;;14.93;75.65;95312.75;5085265;28;20690;-77
2022/11/03 07:50:48;;;;;;;31.13;16.67;;;;;;;15.04;75.48;95312.75;5084972;28;20207;-76
2022/11/03 07:53:25;;;;;;;31.33;16.27;;;;;;;15.13;74.78;95316.63;5085698;28;20207;-77
2022/11/03 07:55:55;;;;;;;41.33;17.77;;;;;;;15.29;74.91;95309.91;5086075;28;20240;-76
2022/11/03 07:58:26;;;;;;;35.80;17.00;;;;;;;15.45;75.06;95317.03;5084163;28;20334;-76
2022/11/03 08:00:57;;;;;;;40.93;18.20;;;;;;;15.59;74.46;95307.91;5084690;28;20208;-77
2022/11/03 08:03:46;;;;;;;35.40;18.33;;;;;;;15.71;73.76;95300.81;5084511;28;20189;-75
2022/11/03 08:06:14;;;;;;;31.00;17.00;;;;;;;15.84;73.44;95292.66;5082750;28;20208;-76
2022/11/03 08:08:41;;;;;;;31.17;18.37;;;;;;;15.90;72.73;95289.09;5085350;28;20608;-76
2022/11/03 08:11:09;;;;;;;33.73;17.40;;;;;;;16.01;72.42;95291.91;5082613;28;20200;-77
2022/11/03 08:13:36;;;;;;;33.57;17.73;;;;;;;16.04;71.04;95287.00;5083764;28;20306;-77
2022/11/03 08:16:04;;;;;;;33.00;17.60;;;;;;;15.95;71.57;95288.41;5082235;28;20208;-78
2022/11/03 08:18:31;;;;;;;36.40;18.37;;;;;;;15.75;73.10;95293.28;5086583;28;20719;-77
2022/11/03 08:20:58;;;;;;;31.47;16.50;;;;;;;15.54;74.47;95289.47;5084299;28;20330;-81
2022/11/03 08:23:27;;;;;;;38.13;17.60;;;;;;;15.60;73.70;95280.69;5083895;28;20192;-80
2022/11/03 08:25:54;;;;;;;30.47;17.83;;;;;;;15.74;73.46;95274.13;5085581;28;20754;-80
2022/11/03 08:28:24;;;;;;;30.00;15.37;;;;;;;15.89;72.68;95277.03;5084656;28;20288;-79
2022/11/03 08:30:51;;;;;;;27.77;15.40;;;;;;;16.08;71.55;95279.44;5085718;28;20269;-80
2022/11/03 08:33:22;;;;;;;28.67;15.77;;;;;;;16.24;70.99;95278.69;5084763;28;20215;-78
2022/11/03 08:35:48;;;;;;;29.30;15.40;;;;;;;16.36;69.66;95274.94;5083136;28;20373;-76
2022/11/03 08:38:15;;;;;;;29.13;15.37;;;;;;;16.40;68.98;95272.63;5082858;28;20232;-76
2022/11/03 08:40:44;;;;;;;31.37;15.27;;;;;;;16.48;68.92;95279.34;5083138;28;20670;-76
2022/11/03 08:43:15;;;;;;;31.13;15.67;;;;;;;16.56;68.40;95277.13;5083470;28;20213;-77
2022/11/03 08:45:42;;;;;;;28.20;14.70;;;;;;;16.70;68.47;95274.97;5081925;28;20196;-77
2022/11/03 08:48:11;;;;;;;33.83;14.80;;;;;;;16.80;67.69;95281.16;5082388;28;20196;-77
2022/11/03 08:50:39;;;;;;;32.63;15.00;;;;;;;16.78;67.42;95277.97;5083026;28;20201;-76
2022/11/03 08:53:06;;;;;;;28.17;15.20;;;;;;;16.32;69.01;95270.41;5085222;28;20193;-76
2022/11/03 08:55:37;;;;;;;32.90;15.07;;;;;;;16.03;70.28;95274.09;5083249;28;20206;-76
2022/11/03 08:58:05;;;;;;;30.70;14.13;;;;;;;16.21;69.01;95272.09;5082429;28;20327;-75
2022/11/03 09:00:32;;;;;;;28.60;14.43;;;;;;;16.75;66.98;95272.41;5081977;28;20634;-77
2022/11/03 09:03:02;;;;;;;25.90;13.97;;;;;;;17.27;64.87;95270.22;5085717;28;20220;-81
2022/11/03 09:05:30;;;;;;;26.57;14.20;;;;;;;18.11;62.71;95282.78;5086688;28;20197;-78
2022/11/03 09:07:59;;;;;;;29.23;13.27;;;;;;;18.95;59.70;95282.13;5084944;28;20213;-77
2022/11/03 09:10:26;;;;;;;29.42;14.73;;;;;;;19.73;56.04;95287.31;5083395;28;20189;-75
2022/11/03 09:12:54;;;;;;;27.48;14.00;;;;;;;20.33;53.62;95265.53;5083741;28;20254;-76
2022/11/03 09:15:22;;;;;;;30.00;14.20;;;;;;;21.17;51.40;95277.38;5086597;28;20224;-77
2022/11/03 09:17:49;;;;;;;28.13;14.65;;;;;;;21.75;49.45;95274.00;5083996;28;20240;-76
2022/11/03 09:20:16;;;;;;;26.73;13.95;;;;;;;22.00;48.35;95268.59;5082872;28;20223;-76
2022/11/03 09:22:43;;;;;;;27.67;13.02;;;;;;;22.75;47.35;95268.31;5081972;28;20205;-76
2022/11/03 09:25:10;;;;;;;32.38;13.90;;;;;;;23.44;45.40;95271.38;5085090;28;20624;-77
2022/11/03 09:27:37;;;;;;;31.88;13.52;;;;;;;23.97;43.05;95273.91;5085051;28;20196;-76
2022/11/03 09:30:05;;;;;;;32.17;14.23;;;;;;;24.47;41.15;95265.25;5064428;28;20197;-76
2022/11/03 09:32:33;;;;;;;29.20;13.82;;;;;;;24.81;40.42;95255.13;5072772;28;20299;-76
2022/11/03 09:35:00;;;;;;;20.10;13.07;;;;;;;25.18;39.30;95262.19;5083037;28;21096;-77
2022/11/03 09:37:28;;;;;;;27.30;13.38;;;;;;;25.42;38.78;95262.78;5086411;28;20200;-76
2022/11/03 09:39:55;;;;;;;24.67;13.55;;;;;;;25.80;38.26;95259.94;5084239;28;20270;-75
2022/11/03 09:42:22;;;;;;;25.13;12.82;;;;;;;26.27;37.58;95254.13;5084127;28;20204;-76
2022/11/03 09:44:53;;;;;;;28.05;12.93;;;;;;;26.49;36.63;95256.78;5084097;28;20204;-76
2022/11/03 09:47:24;;;;;;;23.65;12.32;;;;;;;26.78;35.58;95250.25;5083935;28;20188;-79
2022/11/03 09:49:53;;;;;;;25.33;13.55;;;;;;;27.09;35.75;95255.63;5085610;28;20706;-78
2022/11/03 09:52:25;;;;;;;27.40;13.50;;;;;;;27.59;35.44;95256.94;5084372;28;20554;-77
2022/11/03 09:54:55;;;;;;;23.30;13.80;;;;;;;28.08;33.48;95256.59;5085187;28;20289;-79
2022/11/03 09:57:26;;;;;;;27.63;14.38;;;;;;;27.93;33.08;95253.56;5084874;28;20224;-78
2022/11/03 09:59:53;;;;;;;27.88;13.50;;;;;;;27.63;34.08;95247.22;5086801;28;20212;-76
2022/11/03 10:02:24;;;;;;;28.50;13.57;;;;;;;27.84;33.80;95250.09;5086387;28;20205;-79
2022/11/03 10:04:56;;;;;;;29.55;12.63;;;;;;;28.19;33.37;95251.75;5085940;28;20991;-80
2022/11/03 10:07:26;;;;;;;23.02;12.55;;;;;;;28.11;32.34;95237.25;5085398;28;20197;-78
2022/11/03 10:09:54;;;;;;;31.55;13.30;;;;;;;27.99;32.58;95233.63;5084929;28;20196;-79
2022/11/03 10:12:22;;;;;;;20.70;11.60;;;;;;;28.22;32.92;95226.25;5088165;28;20938;-80
2022/11/03 10:14:51;;;;;;;23.83;12.02;;;;;;;28.28;32.32;95228.47;5085440;28;20205;-79
2022/11/03 10:17:19;;;;;;;21.77;12.00;;;;;;;28.13;32.06;95227.06;5084130;28;20229;-79
2022/11/03 10:19:48;;;;;;;28.83;11.52;;;;;;;28.35;32.42;95217.28;5085674;28;20209;-79
2022/11/03 10:22:17;;;;;;;22.40;11.23;;;;;;;28.63;31.64;95224.66;5084179;28;20204;-80
2022/11/03 10:24:44;;;;;;;19.00;11.00;;;;;;;28.84;31.41;95211.41;5086994;28;20200;-80
2022/11/03 10:27:22;;;;;;;22.25;11.50;;;;;;;29.32;30.98;95213.81;5085082;28;20201;-79
2022/11/03 10:30:04;;;;;;;27.63;11.93;;;;;;;29.75;30.76;95209.00;5085564;28;20209;-81
2022/11/03 10:32:33;;;;;;;28.90;11.80;;;;;;;30.04;30.17;95212.78;5084841;28;20223;-80
2022/11/03 10:35:00;;;;;;;27.17;11.27;;;;;;;30.18;29.31;95202.56;5085822;28;20207;-80
2022/11/03 10:37:29;;;;;;;19.25;11.00;;;;;;;30.05;28.77;95198.22;5088433;28;20196;-80
2022/11/03 10:39:57;;;;;;;24.95;11.10;;;;;;;29.99;29.25;95194.16;5085616;28;20228;-80
2022/11/03 10:42:25;;;;;;;21.35;10.48;;;;;;;29.70;29.07;95190.41;5085482;28;20287;-81
2022/11/03 10:44:53;;;;;;;22.30;9.82;;;;;;;29.61;28.31;95184.31;5085131;28;20243;-79
2022/11/03 10:47:25;;;;;;;21.75;10.35;;;;;;;29.63;28.47;95176.75;5086581;28;20200;-76
2022/11/03 10:49:53;;;;;;;23.55;10.55;;;;;;;29.94;28.52;95178.28;5084422;28;20709;-78
2022/11/03 10:52:22;;;;;;;22.25;9.35;;;;;;;30.28;27.68;95170.72;5084835;28;20789;-77
2022/11/03 10:54:52;;;;;;;19.10;8.98;;;;;;;30.54;27.31;95175.88;5085365;28;20242;-77
2022/11/03 10:57:20;;;;;;;18.17;8.52;;;;;;;30.88;27.38;95174.75;5083926;28;20204;-79
2022/11/03 10:59:50;;;;;;;16.80;8.90;;;;;;;31.12;26.36;95158.69;5088063;28;20244;-78
2022/11/03 11:02:19;;;;;;;21.77;7.57;;;;;;;31.04;25.37;95164.94;5084917;28;20197;-79
2022/11/03 11:04:47;;;;;;;17.67;7.43;;;;;;;30.49;26.26;95161.88;5086705;28;20208;-79
2022/11/03 11:07:22;;;;;;;16.95;7.03;;;;;;;30.63;25.81;95157.00;5087148;28;20267;-78
2022/11/03 11:09:50;;;;;;;22.35;7.05;;;;;;;30.30;25.81;95149.72;5088445;28;20327;-79
2022/11/03 11:12:19;;;;;;;17.13;7.57;;;;;;;30.34;26.04;95141.78;5090288;28;20193;-78
2022/11/03 11:14:54;;;;;;;14.75;7.45;;;;;;;30.47;26.48;95146.13;5089953;28;20201;-77
2022/11/03 11:17:48;;;;;;;13.90;6.80;;;;;;;30.28;25.93;95143.91;5088849;28;20204;-78
2022/11/03 11:20:30;;;;;;;17.80;6.90;;;;;;;30.07;25.63;95143.13;5087646;28;20229;-77
2022/11/03 11:23:32;;;;;;;14.60;6.85;;;;;;;30.18;26.65;95130.91;5089579;28;20679;-77
2022/11/03 11:26:17;;;;;;;14.35;5.57;;;;;;;30.75;25.56;95143.59;5077478;28;20200;-77
2022/11/03 11:28:45;;;;;;;12.77;6.25;;;;;;;31.26;26.09;95136.84;5088194;28;20208;-77
2022/11/03 11:31:30;;;;;;;12.05;5.15;;;;;;;31.61;25.11;95131.78;5089503;28;20200;-78
2022/11/03 11:34:34;;;;;;;16.73;5.57;;;;;;;32.03;24.71;95134.97;5087814;28;20684;-77
2022/11/03 11:37:35;;;;;;;16.08;6.00;;;;;;;32.36;23.71;95128.19;5084661;28;20196;-78
2022/11/03 11:40:03;;;;;;;18.40;6.55;;;;;;;32.50;23.79;95114.31;5085883;28;20200;-79
2022/11/03 11:42:31;;;;;;;13.02;7.10;;;;;;;32.59;23.74;95123.06;5087326;28;20761;-78
2022/11/03 11:45:01;;;;;;;16.63;6.93;;;;;;;32.36;23.43;95117.44;5087353;28;20197;-78
2022/11/03 11:47:42;;;;;;;19.60;8.55;;;;;;;32.62;24.01;95103.50;5089945;28;20899;-78
2022/11/03 11:50:28;;;;;;;18.65;7.68;;;;;;;33.03;23.71;95108.38;5088902;28;20808;-77
2022/11/03 11:53:13;;;;;;;22.83;7.70;;;;;;;33.22;22.05;95106.94;5087174;28;20197;-76
2022/11/03 11:55:43;;;;;;;18.55;7.13;;;;;;;33.17;22.26;95091.00;5084950;28;20854;-78
2022/11/03 11:58:23;;;;;;;16.85;6.75;;;;;;;33.08;22.51;95094.66;5086807;28;20196;-77